createdAt,value
2017-01-02T00:00:31.410Z,0
2017-01-02T00:01:31.389Z,0
2017-01-02T00:02:31.367Z,0
2017-01-02T00:03:31.345Z,0
2017-01-02T00:04:31.375Z,0
2017-01-02T00:05:31.304Z,0
2017-01-02T00:06:31.274Z,0
2017-01-02T00:07:31.264Z,0
2017-01-02T00:08:31.275Z,0
2017-01-02T00:09:31.671Z,0
2017-01-02T00:10:31.201Z,0
2017-01-02T00:11:31.167Z,0
2017-01-02T00:12:31.145Z,0
2017-01-02T00:13:31.119Z,0
2017-01-02T00:14:31.095Z,0
2017-01-02T00:15:31.075Z,0
2017-01-02T00:16:31.070Z,0
2017-01-02T00:17:31.037Z,0
2017-01-02T00:18:31.031Z,0
2017-01-02T00:19:31.002Z,0
2017-01-02T00:20:30.960Z,0
2017-01-02T00:21:30.952Z,0
2017-01-02T00:22:30.919Z,0
2017-01-02T00:23:30.910Z,0
2017-01-02T00:24:30.885Z,0
2017-01-02T00:25:30.855Z,0
2017-01-02T00:26:30.825Z,0
2017-01-02T00:27:30.814Z,0
2017-01-02T00:28:30.813Z,0
2017-01-02T00:29:30.791Z,0
2017-01-02T00:30:30.738Z,0
2017-01-02T00:31:30.730Z,0
2017-01-02T00:32:30.707Z,0
2017-01-02T00:33:30.682Z,0
2017-01-02T00:34:30.669Z,0
2017-01-02T00:35:30.634Z,0
2017-01-02T00:36:30.596Z,0
2017-01-02T00:37:30.583Z,0
2017-01-02T00:38:30.557Z,0
2017-01-02T00:39:30.534Z,0
2017-01-02T00:40:30.507Z,0
2017-01-02T00:41:30.484Z,0
2017-01-02T00:42:30.461Z,0
2017-01-02T00:43:30.438Z,0
2017-01-02T00:44:30.422Z,0
2017-01-02T00:45:30.397Z,0
2017-01-02T00:46:30.368Z,0
2017-01-02T00:47:30.349Z,0
2017-01-02T00:48:30.327Z,0
2017-01-02T00:49:30.303Z,0
2017-01-02T00:50:30.332Z,0
2017-01-02T00:51:30.266Z,0
2017-01-02T00:52:30.244Z,0
2017-01-02T00:53:30.218Z,0
2017-01-02T00:54:30.190Z,0
2017-01-02T00:55:30.169Z,0
2017-01-02T00:56:30.148Z,0
2017-01-02T00:57:30.129Z,0
2017-01-02T00:58:30.503Z,0
2017-01-02T00:59:30.080Z,0
2017-01-02T01:00:30.060Z,0
2017-01-02T01:01:30.447Z,0
2017-01-02T01:02:30.014Z,0
2017-01-02T01:03:29.995Z,0
2017-01-02T01:04:29.969Z,0
2017-01-02T01:05:30.345Z,0
2017-01-02T01:06:30.314Z,0
2017-01-02T01:07:29.901Z,0
2017-01-02T01:08:29.875Z,0
2017-01-02T01:09:29.858Z,0
2017-01-02T01:10:29.833Z,0
2017-01-02T01:11:29.814Z,0
2017-01-02T01:12:29.788Z,0
2017-01-02T01:13:29.769Z,0
2017-01-02T01:14:29.791Z,0
2017-01-02T01:15:29.717Z,0
2017-01-02T01:16:29.708Z,0
2017-01-02T01:17:29.683Z,0
2017-01-02T01:18:30.071Z,0
2017-01-02T01:19:29.631Z,0
2017-01-02T01:20:29.614Z,0
2017-01-02T01:21:29.978Z,0
2017-01-02T01:22:29.966Z,0
2017-01-02T01:23:29.543Z,0
2017-01-02T01:24:29.521Z,0
2017-01-02T01:25:29.511Z,0
2017-01-02T01:26:29.464Z,0
2017-01-02T01:27:29.450Z,0
2017-01-02T01:28:29.423Z,0
2017-01-02T01:29:29.406Z,0
2017-01-02T01:30:29.376Z,0
2017-01-02T01:31:29.362Z,0
2017-01-02T01:32:29.332Z,0
2017-01-02T01:33:29.705Z,0
2017-01-02T01:34:29.288Z,0
2017-01-02T01:35:29.270Z,0
2017-01-02T01:36:29.244Z,0
2017-01-02T01:37:29.221Z,0
2017-01-02T01:38:29.197Z,0
2017-01-02T01:39:29.171Z,0
2017-01-02T01:40:29.156Z,0
2017-01-02T01:41:29.132Z,0
2017-01-02T01:42:29.108Z,0
2017-01-02T01:43:29.092Z,0
2017-01-02T01:44:29.062Z,0
2017-01-02T01:45:29.039Z,0
2017-01-02T01:46:29.019Z,0
2017-01-02T01:47:28.994Z,0
2017-01-02T01:48:28.971Z,0
2017-01-02T01:49:28.959Z,0
2017-01-02T01:50:28.935Z,0
2017-01-02T01:51:28.961Z,0
2017-01-02T01:52:28.896Z,0
2017-01-02T01:53:28.881Z,0
2017-01-02T01:54:28.849Z,0
2017-01-02T01:55:28.815Z,0
2017-01-02T01:56:28.790Z,0
2017-01-02T01:57:28.763Z,0
2017-01-02T01:58:28.745Z,0
2017-01-02T01:59:28.725Z,0
2017-01-02T02:00:28.708Z,0
2017-01-02T02:01:28.680Z,0
2017-01-02T02:02:28.657Z,0
2017-01-02T02:03:28.633Z,0
2017-01-02T02:04:28.641Z,0
2017-01-02T02:05:28.590Z,0
2017-01-02T02:06:28.562Z,0
2017-01-02T02:07:28.548Z,0
2017-01-02T02:08:28.518Z,0
2017-01-02T02:09:28.496Z,0
2017-01-02T02:10:28.478Z,0
2017-01-02T02:11:28.858Z,0
2017-01-02T02:12:28.431Z,0
2017-01-02T02:13:28.402Z,0
2017-01-02T02:14:28.383Z,0
2017-01-02T02:15:28.387Z,0
2017-01-02T02:16:28.333Z,0
2017-01-02T02:17:28.312Z,0
2017-01-02T02:18:28.309Z,0
2017-01-02T02:19:28.277Z,0
2017-01-02T02:20:28.252Z,0
2017-01-02T02:21:28.223Z,0
2017-01-02T02:22:28.204Z,0
2017-01-02T02:23:28.178Z,0
2017-01-02T02:24:28.165Z,0
2017-01-02T02:25:28.138Z,0
2017-01-02T02:26:28.114Z,0
2017-01-02T02:27:28.094Z,0
2017-01-02T02:28:28.067Z,0
2017-01-02T02:29:28.046Z,0
2017-01-02T02:30:28.028Z,0
2017-01-02T02:31:27.993Z,0
2017-01-02T02:32:27.980Z,0
2017-01-02T02:33:27.955Z,0
2017-01-02T02:34:27.930Z,0
2017-01-02T02:35:27.912Z,0
2017-01-02T02:36:27.882Z,0
2017-01-02T02:37:27.869Z,0
2017-01-02T02:38:27.840Z,0
2017-01-02T02:39:27.819Z,0
2017-01-02T02:40:27.805Z,0
2017-01-02T02:41:27.769Z,0
2017-01-02T02:42:27.762Z,0
2017-01-02T02:43:27.721Z,0
2017-01-02T02:44:27.721Z,0
2017-01-02T02:45:27.680Z,0
2017-01-02T02:46:27.864Z,0
2017-01-02T02:47:27.643Z,0
2017-01-02T02:48:27.647Z,0
2017-01-02T02:49:27.589Z,0
2017-01-02T02:50:27.569Z,0
2017-01-02T02:51:27.544Z,0
2017-01-02T02:52:27.520Z,0
2017-01-02T02:53:27.503Z,0
2017-01-02T02:54:27.476Z,0
2017-01-02T02:55:27.461Z,0
2017-01-02T02:56:27.439Z,0
2017-01-02T02:57:27.408Z,0
2017-01-02T02:58:27.817Z,0
2017-01-02T02:59:27.367Z,0
2017-01-02T03:00:27.341Z,0
2017-01-02T03:01:27.321Z,0
2017-01-02T03:02:27.290Z,0
2017-01-02T03:03:27.275Z,0
2017-01-02T03:04:27.649Z,0
2017-01-02T03:05:27.224Z,0
2017-01-02T03:06:27.208Z,0
2017-01-02T03:07:27.175Z,0
2017-01-02T03:08:27.160Z,0
2017-01-02T03:09:27.172Z,0
2017-01-02T03:10:27.129Z,0
2017-01-02T03:11:27.089Z,0
2017-01-02T03:12:27.073Z,0
2017-01-02T03:13:27.047Z,0
2017-01-02T03:14:27.019Z,0
2017-01-02T03:15:27.000Z,0
2017-01-02T03:16:27.024Z,0
2017-01-02T03:17:26.954Z,0
2017-01-02T03:18:26.941Z,0
2017-01-02T03:19:26.923Z,0
2017-01-02T03:20:26.901Z,0
2017-01-02T03:21:26.872Z,0
2017-01-02T03:22:26.844Z,0
2017-01-02T03:23:26.819Z,0
2017-01-02T03:24:26.802Z,0
2017-01-02T03:25:26.774Z,0
2017-01-02T03:26:26.758Z,0
2017-01-02T03:27:26.753Z,0
2017-01-02T03:28:26.707Z,0
2017-01-02T03:29:26.683Z,0
2017-01-02T03:30:26.662Z,0
2017-01-02T03:31:26.634Z,0
2017-01-02T03:32:26.624Z,0
2017-01-02T03:33:26.586Z,0
2017-01-02T03:34:27.363Z,0
2017-01-02T03:35:26.546Z,0
2017-01-02T03:36:26.524Z,0
2017-01-02T03:37:26.499Z,0
2017-01-02T03:38:26.480Z,0
2017-01-02T03:39:26.454Z,0
2017-01-02T03:40:26.434Z,0
2017-01-02T03:41:26.414Z,0
2017-01-02T03:42:26.420Z,0
2017-01-02T03:43:26.369Z,0
2017-01-02T03:44:26.387Z,0
2017-01-02T03:45:26.331Z,0
2017-01-02T03:46:26.335Z,0
2017-01-02T03:47:26.274Z,0
2017-01-02T03:48:26.280Z,0
2017-01-02T03:49:26.246Z,0
2017-01-02T03:50:26.212Z,0
2017-01-02T03:51:26.185Z,0
2017-01-02T03:52:26.165Z,0
2017-01-02T03:53:26.144Z,0
2017-01-02T03:54:26.124Z,0
2017-01-02T03:55:26.500Z,0
2017-01-02T03:56:26.071Z,0
2017-01-02T03:57:26.045Z,0
2017-01-02T03:58:26.017Z,0
2017-01-02T03:59:26.009Z,0
2017-01-02T04:00:25.977Z,0
2017-01-02T04:01:25.952Z,0
2017-01-02T04:02:25.934Z,0
2017-01-02T04:03:25.912Z,0
2017-01-02T04:04:25.888Z,0
2017-01-02T04:05:26.273Z,0
2017-01-02T04:06:25.873Z,0
2017-01-02T04:07:25.819Z,0
2017-01-02T04:08:25.796Z,0
2017-01-02T04:09:25.776Z,0
2017-01-02T04:10:25.749Z,0
2017-01-02T04:11:25.760Z,0
2017-01-02T04:12:25.707Z,0
2017-01-02T04:13:25.679Z,0
2017-01-02T04:14:25.663Z,0
2017-01-02T04:15:25.634Z,0
2017-01-02T04:16:25.619Z,0
2017-01-02T04:17:25.591Z,0
2017-01-02T04:18:25.565Z,0
2017-01-02T04:19:25.560Z,0
2017-01-02T04:20:25.523Z,0
2017-01-02T04:21:25.502Z,0
2017-01-02T04:22:25.482Z,0
2017-01-02T04:23:25.458Z,0
2017-01-02T04:24:25.437Z,0
2017-01-02T04:25:25.409Z,0
2017-01-02T04:26:25.387Z,0
2017-01-02T04:27:25.370Z,0
2017-01-02T04:28:25.742Z,0
2017-01-02T04:29:25.337Z,0
2017-01-02T04:30:25.299Z,0
2017-01-02T04:31:25.271Z,0
2017-01-02T04:32:25.247Z,0
2017-01-02T04:33:25.227Z,0
2017-01-02T04:34:25.201Z,0
2017-01-02T04:35:25.183Z,0
2017-01-02T04:36:25.158Z,0
2017-01-02T04:37:25.158Z,0
2017-01-02T04:38:25.161Z,0
2017-01-02T04:39:25.099Z,0
2017-01-02T04:40:25.075Z,0
2017-01-02T04:41:25.064Z,0
2017-01-02T04:42:25.022Z,0
2017-01-02T04:43:25.003Z,0
2017-01-02T04:44:24.981Z,0
2017-01-02T04:45:24.975Z,0
2017-01-02T04:46:25.167Z,0
2017-01-02T04:47:24.916Z,0
2017-01-02T04:48:24.913Z,0
2017-01-02T04:49:24.861Z,0
2017-01-02T04:50:24.843Z,0
2017-01-02T04:51:24.826Z,0
2017-01-02T04:52:24.800Z,0
2017-01-02T04:53:24.779Z,0
2017-01-02T04:54:24.753Z,0
2017-01-02T04:55:24.741Z,0
2017-01-02T04:56:24.706Z,0
2017-01-02T04:57:25.099Z,0
2017-01-02T04:58:24.664Z,0
2017-01-02T04:59:24.635Z,0
2017-01-02T05:00:24.618Z,0
2017-01-02T05:01:24.641Z,0
2017-01-02T05:02:24.567Z,0
2017-01-02T05:03:24.550Z,0
2017-01-02T05:04:24.523Z,0
2017-01-02T05:05:24.504Z,0
2017-01-02T05:06:24.529Z,0
2017-01-02T05:07:24.456Z,0
2017-01-02T05:08:24.445Z,0
2017-01-02T05:09:24.431Z,0
2017-01-02T05:10:24.401Z,0
2017-01-02T05:11:24.375Z,0
2017-01-02T05:12:24.345Z,0
2017-01-02T05:13:24.325Z,0
2017-01-02T05:14:24.300Z,0
2017-01-02T05:15:24.277Z,0
2017-01-02T05:16:24.251Z,0
2017-01-02T05:17:24.230Z,0
2017-01-02T05:18:24.200Z,0
2017-01-02T05:19:24.581Z,0
2017-01-02T05:20:24.163Z,0
2017-01-02T05:21:24.139Z,0
2017-01-02T05:22:24.119Z,0
2017-01-02T05:23:24.095Z,0
2017-01-02T05:24:24.078Z,0
2017-01-02T05:25:24.057Z,0
2017-01-02T05:26:24.026Z,0
2017-01-02T05:27:24.009Z,0
2017-01-02T05:28:23.985Z,0
2017-01-02T05:29:23.960Z,0
2017-01-02T05:30:23.947Z,0
2017-01-02T05:31:23.911Z,0
2017-01-02T05:32:23.888Z,0
2017-01-02T05:33:23.874Z,0
2017-01-02T05:34:23.843Z,0
2017-01-02T05:35:23.819Z,0
2017-01-02T05:36:23.803Z,0
2017-01-02T05:37:23.787Z,0
2017-01-02T05:38:23.749Z,0
2017-01-02T05:39:23.731Z,0
2017-01-02T05:40:23.707Z,0
2017-01-02T05:41:24.479Z,0
2017-01-02T05:42:23.664Z,0
2017-01-02T05:43:23.639Z,0
2017-01-02T05:44:23.620Z,0
2017-01-02T05:45:23.595Z,0
2017-01-02T05:46:23.578Z,0
2017-01-02T05:47:23.551Z,0
2017-01-02T05:48:23.526Z,0
2017-01-02T05:49:23.513Z,0
2017-01-02T05:50:23.485Z,0
2017-01-02T05:51:23.479Z,0
2017-01-02T05:52:23.435Z,0
2017-01-02T05:53:23.418Z,0
2017-01-02T05:54:23.388Z,0
2017-01-02T05:55:23.370Z,0
2017-01-02T05:56:23.345Z,0
2017-01-02T05:57:23.353Z,0
2017-01-02T05:58:23.302Z,0
2017-01-02T05:59:23.676Z,0
2017-01-02T06:00:23.262Z,0
2017-01-02T06:01:23.235Z,0
2017-01-02T06:02:23.215Z,0
2017-01-02T06:03:23.188Z,0
2017-01-02T06:04:23.171Z,0
2017-01-02T06:05:23.140Z,0
2017-01-02T06:06:23.152Z,0
2017-01-02T06:07:23.100Z,0
2017-01-02T06:08:23.077Z,0
2017-01-02T06:09:23.058Z,0
2017-01-02T06:10:23.033Z,0
2017-01-02T06:11:23.011Z,0
2017-01-02T06:12:22.989Z,0
2017-01-02T06:13:22.981Z,0
2017-01-02T06:14:22.947Z,0
2017-01-02T06:15:22.923Z,0
2017-01-02T06:16:22.901Z,0
2017-01-02T06:17:22.882Z,0
2017-01-02T06:18:23.248Z,0
2017-01-02T06:19:22.834Z,0
2017-01-02T06:20:22.808Z,0
2017-01-02T06:21:22.787Z,0
2017-01-02T06:22:23.161Z,0
2017-01-02T06:23:22.741Z,0
2017-01-02T06:24:23.118Z,0
2017-01-02T06:25:22.702Z,0
2017-01-02T06:26:22.674Z,0
2017-01-02T06:27:22.657Z,0
2017-01-02T06:28:22.645Z,0
2017-01-02T06:29:22.619Z,0
2017-01-02T06:30:22.601Z,0
2017-01-02T06:31:22.578Z,0
2017-01-02T06:32:22.557Z,0
2017-01-02T06:33:22.589Z,0
2017-01-02T06:34:22.495Z,0
2017-01-02T06:35:22.868Z,0
2017-01-02T06:36:22.451Z,0
2017-01-02T06:37:22.431Z,0
2017-01-02T06:38:22.408Z,0
2017-01-02T06:39:22.386Z,0
2017-01-02T06:40:22.360Z,0
2017-01-02T06:41:22.345Z,0
2017-01-02T06:42:22.318Z,0
2017-01-02T06:43:22.346Z,0
2017-01-02T06:44:22.286Z,0
2017-01-02T06:45:22.263Z,0
2017-01-02T06:46:22.428Z,0
2017-01-02T06:47:22.242Z,0
2017-01-02T06:48:22.188Z,0
2017-01-02T06:49:22.166Z,0
2017-01-02T06:50:22.157Z,0
2017-01-02T06:51:22.127Z,0
2017-01-02T06:52:22.095Z,0
2017-01-02T06:53:22.087Z,0
2017-01-02T06:54:22.059Z,0
2017-01-02T06:55:22.108Z,0
2017-01-02T06:56:22.017Z,0
2017-01-02T06:57:22.011Z,0
2017-01-02T06:58:21.995Z,0
2017-01-02T06:59:21.956Z,0
2017-01-02T07:00:21.943Z,0
2017-01-02T07:01:21.903Z,0
2017-01-02T07:02:21.872Z,0
2017-01-02T07:03:21.878Z,0
2017-01-02T07:04:21.823Z,0
2017-01-02T07:05:21.834Z,4
2017-01-02T07:06:21.794Z,4
2017-01-02T07:07:22.159Z,4
2017-01-02T07:08:21.740Z,4
2017-01-02T07:09:21.722Z,4
2017-01-02T07:10:21.693Z,4
2017-01-02T07:11:21.685Z,4
2017-01-02T07:12:21.647Z,4
2017-01-02T07:13:22.034Z,4
2017-01-02T07:14:21.610Z,8
2017-01-02T07:15:21.581Z,8
2017-01-02T07:16:21.562Z,8
2017-01-02T07:17:21.537Z,16
2017-01-02T07:18:21.517Z,16
2017-01-02T07:19:21.492Z,24
2017-01-02T07:20:21.470Z,24
2017-01-02T07:21:21.455Z,24
2017-01-02T07:22:21.429Z,24
2017-01-02T07:23:21.405Z,24
2017-01-02T07:24:21.387Z,24
2017-01-02T07:25:21.373Z,32
2017-01-02T07:26:21.342Z,48
2017-01-02T07:27:21.317Z,68
2017-01-02T07:28:21.314Z,52
2017-01-02T07:29:21.335Z,56
2017-01-02T07:30:21.249Z,60
2017-01-02T07:31:21.226Z,72
2017-01-02T07:32:21.203Z,76
2017-01-02T07:33:21.182Z,88
2017-01-02T07:34:21.171Z,108
2017-01-02T07:35:21.156Z,120
2017-01-02T07:36:21.118Z,140
2017-01-02T07:37:21.098Z,128
2017-01-02T07:38:21.071Z,116
2017-01-02T07:39:21.052Z,112
2017-01-02T07:40:21.030Z,128
2017-01-02T07:41:21.006Z,148
2017-01-02T07:42:20.984Z,172
2017-01-02T07:43:20.959Z,180
2017-01-02T07:44:20.947Z,176
2017-01-02T07:45:20.923Z,176
2017-01-02T07:46:20.912Z,184
2017-01-02T07:47:20.919Z,196
2017-01-02T07:48:20.846Z,220
2017-01-02T07:49:20.833Z,236
2017-01-02T07:50:20.806Z,248
2017-01-02T07:51:20.785Z,264
2017-01-02T07:52:20.769Z,300
2017-01-02T07:53:20.741Z,312
2017-01-02T07:54:20.715Z,312
2017-01-02T07:55:20.691Z,300
2017-01-02T07:56:20.673Z,296
2017-01-02T07:57:20.650Z,296
2017-01-02T07:58:20.622Z,316
2017-01-02T07:59:20.603Z,336
2017-01-02T08:00:20.585Z,380
2017-01-02T08:01:20.557Z,424
2017-01-02T08:02:20.534Z,480
2017-01-02T08:03:20.513Z,552
2017-01-02T08:04:20.896Z,588
2017-01-02T08:05:20.470Z,612
2017-01-02T08:06:20.446Z,616
2017-01-02T08:07:20.428Z,528
2017-01-02T08:08:20.403Z,488
2017-01-02T08:09:20.381Z,524
2017-01-02T08:10:20.360Z,612
2017-01-02T08:11:20.349Z,708
2017-01-02T08:12:20.363Z,852
2017-01-02T08:13:20.306Z,980
2017-01-02T08:14:20.285Z,1008
2017-01-02T08:15:20.674Z,1020
2017-01-02T08:16:20.245Z,924
2017-01-02T08:17:20.201Z,876
2017-01-02T08:18:20.181Z,928
2017-01-02T08:19:20.159Z,988
2017-01-02T08:20:20.535Z,1100
2017-01-02T08:21:20.137Z,1388
2017-01-02T08:22:20.108Z,1768
2017-01-02T08:23:20.477Z,1512
2017-01-02T08:24:20.059Z,1556
2017-01-02T08:25:20.028Z,1844
2017-01-02T08:26:20.000Z,1320
2017-01-02T08:27:20.385Z,1132
2017-01-02T08:28:19.962Z,1188
2017-01-02T08:29:19.938Z,1172
2017-01-02T08:30:19.923Z,1300
2017-01-02T08:31:19.928Z,1148
2017-01-02T08:32:19.875Z,1172
2017-01-02T08:33:19.850Z,1296
2017-01-02T08:34:19.828Z,1288
2017-01-02T08:35:19.808Z,1444
2017-01-02T08:36:19.785Z,1520
2017-01-02T08:37:20.154Z,2216
2017-01-02T08:38:19.735Z,2212
2017-01-02T08:39:19.716Z,1756
2017-01-02T08:40:19.695Z,1824
2017-01-02T08:41:19.677Z,2452
2017-01-02T08:42:19.650Z,1936
2017-01-02T08:43:19.627Z,2072
2017-01-02T08:44:19.606Z,2140
2017-01-02T08:45:19.589Z,2696
2017-01-02T08:46:19.918Z,3180
2017-01-02T08:47:19.540Z,4876
2017-01-02T08:48:19.517Z,5124
2017-01-02T08:49:19.496Z,3976
2017-01-02T08:50:19.475Z,3988
2017-01-02T08:51:19.446Z,4124
2017-01-02T08:52:19.434Z,4384
2017-01-02T08:53:19.411Z,4004
2017-01-02T08:54:19.384Z,4532
2017-01-02T08:55:19.368Z,5348
2017-01-02T08:56:19.345Z,5116
2017-01-02T08:57:19.325Z,5200
2017-01-02T08:58:19.297Z,5224
2017-01-02T08:59:19.281Z,5224
2017-01-02T09:00:19.258Z,5244
2017-01-02T09:01:19.232Z,6156
2017-01-02T09:02:19.211Z,5300
2017-01-02T09:03:19.193Z,5692
2017-01-02T09:04:19.173Z,5520
2017-01-02T09:05:19.153Z,5640
2017-01-02T09:06:19.534Z,5648
2017-01-02T09:07:19.116Z,5948
2017-01-02T09:08:19.082Z,6040
2017-01-02T09:09:19.067Z,6232
2017-01-02T09:10:19.042Z,6004
2017-01-02T09:11:19.023Z,6024
2017-01-02T09:12:18.997Z,6276
2017-01-02T09:13:18.983Z,6388
2017-01-02T09:14:18.963Z,6316
2017-01-02T09:15:18.940Z,6496
2017-01-02T09:16:18.920Z,6540
2017-01-02T09:17:18.901Z,6552
2017-01-02T09:18:18.877Z,7172
2017-01-02T09:19:18.858Z,6976
2017-01-02T09:20:19.220Z,7052
2017-01-02T09:21:18.865Z,7444
2017-01-02T09:22:18.817Z,7792
2017-01-02T09:23:18.795Z,7652
2017-01-02T09:24:18.760Z,7260
2017-01-02T09:25:18.735Z,6724
2017-01-02T09:26:18.720Z,6356
2017-01-02T09:27:18.695Z,6296
2017-01-02T09:28:18.672Z,6276
2017-01-02T09:29:18.661Z,6300
2017-01-02T09:30:18.635Z,6280
2017-01-02T09:31:18.613Z,6208
2017-01-02T09:32:18.586Z,6172
2017-01-02T09:33:18.567Z,6200
2017-01-02T09:34:18.550Z,6232
2017-01-02T09:35:18.528Z,6252
2017-01-02T09:36:18.509Z,6248
2017-01-02T09:37:18.489Z,6176
2017-01-02T09:38:18.482Z,6104
2017-01-02T09:39:18.465Z,6000
2017-01-02T09:40:18.427Z,5880
2017-01-02T09:41:18.428Z,5800
2017-01-02T09:42:18.402Z,5732
2017-01-02T09:43:18.394Z,5668
2017-01-02T09:44:18.349Z,5608
2017-01-02T09:45:18.335Z,5544
2017-01-02T09:46:18.318Z,5496
2017-01-02T09:47:18.286Z,5420
2017-01-02T09:48:18.279Z,5356
2017-01-02T09:49:18.765Z,5316
2017-01-02T09:50:18.255Z,5284
2017-01-02T09:51:18.219Z,5272
2017-01-02T09:52:18.192Z,5244
2017-01-02T09:53:18.189Z,5240
2017-01-02T09:54:18.156Z,5220
2017-01-02T09:55:18.127Z,5216
2017-01-02T09:56:18.132Z,5160
2017-01-02T09:57:18.090Z,5184
2017-01-02T09:58:18.072Z,5268
2017-01-02T09:59:18.050Z,5352
2017-01-02T10:00:18.045Z,5424
2017-01-02T10:01:18.014Z,5508
2017-01-02T10:02:17.986Z,5608
2017-01-02T10:03:18.016Z,5620
2017-01-02T10:04:17.963Z,5600
2017-01-02T10:05:17.923Z,5560
2017-01-02T10:06:17.903Z,5388
2017-01-02T10:07:18.297Z,5292
2017-01-02T10:08:17.872Z,5280
2017-01-02T10:09:17.846Z,5260
2017-01-02T10:10:17.821Z,5232
2017-01-02T10:11:17.802Z,5208
2017-01-02T10:12:17.784Z,5120
2017-01-02T10:13:17.775Z,5008
2017-01-02T10:14:17.743Z,4856
2017-01-02T10:15:17.724Z,4692
2017-01-02T10:16:17.702Z,4592
2017-01-02T10:17:17.680Z,4520
2017-01-02T10:18:17.665Z,4400
2017-01-02T10:19:17.650Z,4372
2017-01-02T10:20:17.686Z,4416
2017-01-02T10:21:17.603Z,4580
2017-01-02T10:22:17.583Z,4852
2017-01-02T10:23:17.559Z,5196
2017-01-02T10:24:17.542Z,5628
2017-01-02T10:25:17.594Z,5412
2017-01-02T10:26:17.515Z,4664
2017-01-02T10:27:17.482Z,4296
2017-01-02T10:28:17.476Z,4640
2017-01-02T10:29:17.492Z,4788
2017-01-02T10:30:17.418Z,4364
2017-01-02T10:31:17.395Z,4260
2017-01-02T10:32:17.378Z,4216
2017-01-02T10:33:17.357Z,4204
2017-01-02T10:34:17.335Z,4136
2017-01-02T10:35:17.327Z,4180
2017-01-02T10:36:17.289Z,4136
2017-01-02T10:37:17.280Z,3708
2017-01-02T10:38:17.251Z,3840
2017-01-02T10:39:17.241Z,3472
2017-01-02T10:40:17.794Z,3228
2017-01-02T10:41:17.205Z,3220
2017-01-02T10:42:17.179Z,3304
2017-01-02T10:43:17.549Z,3464
2017-01-02T10:44:17.133Z,3220
2017-01-02T10:45:17.115Z,3104
2017-01-02T10:46:17.294Z,3060
2017-01-02T10:47:17.071Z,3104
2017-01-02T10:48:17.454Z,3176
2017-01-02T10:49:17.072Z,3356
2017-01-02T10:50:17.009Z,3808
2017-01-02T10:51:16.998Z,4348
2017-01-02T10:52:16.966Z,4224
2017-01-02T10:53:16.951Z,3748
2017-01-02T10:54:16.940Z,3468
2017-01-02T10:55:16.909Z,3852
2017-01-02T10:56:16.889Z,5056
2017-01-02T10:57:16.874Z,6784
2017-01-02T10:58:16.855Z,6208
2017-01-02T10:59:16.830Z,8148
2017-01-02T11:00:16.810Z,6504
2017-01-02T11:01:16.785Z,4928
2017-01-02T11:02:16.767Z,5732
2017-01-02T11:03:16.748Z,7328
2017-01-02T11:04:16.725Z,10836
2017-01-02T11:05:16.707Z,20384
2017-01-02T11:06:16.689Z,20512
2017-01-02T11:07:16.668Z,18624
2017-01-02T11:08:17.051Z,10676
2017-01-02T11:09:16.635Z,7164
2017-01-02T11:10:16.621Z,5944
2017-01-02T11:11:16.623Z,5948
2017-01-02T11:12:16.580Z,6536
2017-01-02T11:13:16.777Z,7952
2017-01-02T11:14:16.743Z,8340
2017-01-02T11:15:16.530Z,12872
2017-01-02T11:16:16.523Z,14104
2017-01-02T11:17:16.474Z,12952
2017-01-02T11:18:16.497Z,15696
2017-01-02T11:19:16.452Z,23232
2017-01-02T11:20:16.430Z,20032
2017-01-02T11:21:16.810Z,10236
2017-01-02T11:22:16.385Z,8180
2017-01-02T11:23:16.378Z,8104
2017-01-02T11:24:16.346Z,7440
2017-01-02T11:25:16.330Z,6968
2017-01-02T11:26:16.320Z,8112
2017-01-02T11:27:16.306Z,9712
2017-01-02T11:28:16.319Z,9280
2017-01-02T11:29:16.328Z,9208
2017-01-02T11:30:16.255Z,9836
2017-01-02T11:31:16.240Z,7952
2017-01-02T11:32:16.220Z,7252
2017-01-02T11:33:16.215Z,7448
2017-01-02T11:34:16.582Z,8120
2017-01-02T11:35:16.169Z,9276
2017-01-02T11:36:16.140Z,10732
2017-01-02T11:37:16.125Z,11252
2017-01-02T11:38:16.118Z,11172
2017-01-02T11:39:16.094Z,10880
2017-01-02T11:40:16.083Z,12224
2017-01-02T11:41:16.059Z,14104
2017-01-02T11:42:16.042Z,12364
2017-01-02T11:43:16.056Z,10456
2017-01-02T11:44:16.037Z,9336
2017-01-02T11:45:15.987Z,9248
2017-01-02T11:46:15.981Z,8408
2017-01-02T11:47:15.956Z,7244
2017-01-02T11:48:15.940Z,5984
2017-01-02T11:49:15.951Z,5284
2017-01-02T11:50:15.929Z,5196
2017-01-02T11:51:15.891Z,5068
2017-01-02T11:52:15.866Z,5252
2017-01-02T11:53:15.893Z,5860
2017-01-02T11:54:15.833Z,6812
2017-01-02T11:55:15.820Z,7608
2017-01-02T11:56:16.196Z,7428
2017-01-02T11:57:15.786Z,7372
2017-01-02T11:58:16.164Z,8056
2017-01-02T11:59:15.749Z,8304
2017-01-02T12:00:15.730Z,7508
2017-01-02T12:01:15.708Z,7012
2017-01-02T12:02:15.711Z,6284
2017-01-02T12:03:15.705Z,5908
2017-01-02T12:04:15.682Z,5496
2017-01-02T12:05:15.659Z,5392
2017-01-02T12:06:15.625Z,5460
2017-01-02T12:07:15.619Z,5932
2017-01-02T12:08:15.588Z,6624
2017-01-02T12:09:15.566Z,7360
2017-01-02T12:10:15.552Z,7960
2017-01-02T12:11:15.531Z,8440
2017-01-02T12:12:15.513Z,8328
2017-01-02T12:13:15.497Z,8668
2017-01-02T12:14:15.476Z,9520
2017-01-02T12:15:15.468Z,9672
2017-01-02T12:16:15.444Z,9524
2017-01-02T12:17:15.427Z,8720
2017-01-02T12:18:15.407Z,9176
2017-01-02T12:19:15.904Z,9680
2017-01-02T12:20:15.390Z,11112
2017-01-02T12:21:15.397Z,9212
2017-01-02T12:22:15.339Z,8188
2017-01-02T12:23:15.327Z,7644
2017-01-02T12:24:15.305Z,7328
2017-01-02T12:25:15.284Z,7416
2017-01-02T12:26:15.281Z,7916
2017-01-02T12:27:15.263Z,6480
2017-01-02T12:28:15.242Z,5844
2017-01-02T12:29:15.216Z,5148
2017-01-02T12:30:15.198Z,4528
2017-01-02T12:31:15.193Z,4304
2017-01-02T12:32:15.180Z,4044
2017-01-02T12:33:15.162Z,3912
2017-01-02T12:34:15.142Z,3984
2017-01-02T12:35:15.128Z,4136
2017-01-02T12:36:15.104Z,4296
2017-01-02T12:37:15.071Z,4288
2017-01-02T12:38:15.053Z,4340
2017-01-02T12:39:15.036Z,4360
2017-01-02T12:40:15.025Z,4328
2017-01-02T12:41:15.002Z,4752
2017-01-02T12:42:14.988Z,5508
2017-01-02T12:43:14.970Z,6340
2017-01-02T12:44:14.955Z,6800
2017-01-02T12:45:14.931Z,6800
2017-01-02T12:46:14.923Z,6472
2017-01-02T12:47:14.896Z,6368
2017-01-02T12:48:14.877Z,6248
2017-01-02T12:49:14.860Z,6164
2017-01-02T12:50:14.871Z,6088
2017-01-02T12:51:14.824Z,6084
2017-01-02T12:52:14.807Z,6000
2017-01-02T12:53:14.787Z,6084
2017-01-02T12:54:14.771Z,6080
2017-01-02T12:55:14.755Z,6108
2017-01-02T12:56:14.730Z,6088
2017-01-02T12:57:14.723Z,6276
2017-01-02T12:58:14.695Z,6340
2017-01-02T12:59:14.683Z,6344
2017-01-02T13:00:15.064Z,6348
2017-01-02T13:01:14.650Z,5776
2017-01-02T13:02:14.648Z,5372
2017-01-02T13:03:14.609Z,5232
2017-01-02T13:04:14.589Z,5148
2017-01-02T13:05:14.572Z,5348
2017-01-02T13:06:14.555Z,5688
2017-01-02T13:07:14.534Z,6028
2017-01-02T13:08:14.519Z,6288
2017-01-02T13:09:14.497Z,6448
2017-01-02T13:10:14.487Z,6552
2017-01-02T13:11:14.470Z,6696
2017-01-02T13:12:14.451Z,6764
2017-01-02T13:13:14.425Z,6856
2017-01-02T13:14:14.406Z,6688
2017-01-02T13:15:14.391Z,6608
2017-01-02T13:16:14.383Z,6164
2017-01-02T13:17:14.749Z,6536
2017-01-02T13:18:14.345Z,6352
2017-01-02T13:19:14.323Z,5916
2017-01-02T13:20:14.318Z,5748
2017-01-02T13:21:14.300Z,5728
2017-01-02T13:22:14.280Z,5776
2017-01-02T13:23:14.254Z,5532
2017-01-02T13:24:14.239Z,5332
2017-01-02T13:25:14.217Z,5140
2017-01-02T13:26:14.198Z,5128
2017-01-02T13:27:14.178Z,4800
2017-01-02T13:28:14.163Z,4708
2017-01-02T13:29:14.144Z,4624
2017-01-02T13:30:14.547Z,4652
2017-01-02T13:31:14.115Z,4648
2017-01-02T13:32:14.090Z,4536
2017-01-02T13:33:14.070Z,4400
2017-01-02T13:34:14.059Z,4264
2017-01-02T13:35:14.068Z,4064
2017-01-02T14:59:23.688Z,1044
2017-01-02T15:00:23.743Z,956
2017-01-02T15:01:23.775Z,848
2017-01-02T15:02:23.747Z,760
2017-01-02T15:03:23.693Z,696
2017-01-02T15:04:23.671Z,636
2017-01-02T15:05:23.630Z,592
2017-01-02T15:06:23.662Z,556
2017-01-02T15:07:23.599Z,536
2017-01-02T15:08:23.582Z,512
2017-01-02T15:09:23.551Z,488
2017-01-02T15:10:23.533Z,468
2017-01-02T15:11:23.515Z,448
2017-01-02T15:12:23.537Z,432
2017-01-02T15:13:23.477Z,420
2017-01-02T15:14:23.847Z,408
2017-01-02T15:15:23.433Z,396
2017-01-02T15:16:23.463Z,384
2017-01-02T15:17:23.399Z,376
2017-01-02T15:18:23.377Z,364
2017-01-02T15:19:23.378Z,352
2017-01-02T15:20:23.330Z,340
2017-01-02T15:21:23.313Z,324
2017-01-02T15:22:23.294Z,312
2017-01-02T15:23:23.275Z,296
2017-01-02T15:24:23.248Z,284
2017-01-02T15:25:23.232Z,272
2017-01-02T15:26:23.218Z,260
2017-01-02T15:27:23.198Z,248
2017-01-02T15:28:23.173Z,236